Latest Weather Observations for Moruya Airport

IDN60801

Issued at 5:32 am EDT Tuesday 24 October 2017 (issued every 30 minutes, with the page automatically refreshed every 10 minutes)

About weather observations | Map of weather stations | Latest weather observations for NSW | Other Formats
Station Details ID: 069148 Name: MORUYA AIRPORT AWS Lat: -35.90 Lon: 150.14 Height: 4.0 m
Data from the previous 72 hours. | See also: Recent months at Moruya Airport
Date/Time
EDT
Temp
°C
App
Temp
°C
Dew
Point
°C
Rel
Hum
%
Delta-T
°C
Wind Press
QNH
hPa
Press
MSL
hPa
Rain since
9am
mm
Dir  Spd
km/h
Gust
km/h
Spd
kts
Gust
kts
24/05:30am 9.1 8.3 8.3 95 0.4 NW 2 7 1 4 1016.4 1016.4 0.0
24/05:00am 8.7 7.1 7.9 95 0.4 WNW 6 7 3 4 1016.6 1016.6 0.0
24/04:30am 8.7 8.2 7.8 94 0.4 CALM 0 0 0 0 1016.8 1016.8 0.0
24/04:23am 8.2 7.6 7.3 94 0.4 CALM 0 0 0 0 1016.8 1016.8 0.0
24/04:00am 8.0 7.3 6.9 93 0.5 CALM 0 0 0 0 1016.8 1016.8 0.0
24/03:30am 8.6 8.1 7.7 94 0.4 CALM 0 0 0 0 1016.9 1016.9 0.0
24/03:27am 8.5 7.9 7.4 93 0.5 CALM 0 0 0 0 1016.9 1016.9 0.0
24/03:00am 9.1 7.9 8.0 93 0.5 W 4 9 2 5 1017.2 1017.2 0.0
24/02:30am 9.5 7.8 8.4 93 0.5 WSW 7 13 4 7 1017.6 1017.6 0.0
24/02:00am 9.8 9.5 8.7 93 0.5 CALM 0 0 0 0 1017.7 1017.7 0.0
24/01:30am 10.0 9.0 8.9 93 0.5 WSW 4 6 2 3 1018.0 1018.0 0.0
24/01:00am 10.5 10.4 9.4 93 0.5 CALM 0 0 0 0 1018.4 1018.4 0.0
24/12:30am 10.3 9.4 9.1 92 0.6 WSW 4 6 2 3 1018.6 1018.6 0.0
24/12:00am 10.2 9.2 8.8 91 0.7 W 4 6 2 3 1018.6 1018.6 0.0
 
Date/Time
EDT
Temp
°C
App
Temp
°C
Dew
Point
°C
Rel
Hum
%
Delta-T
°C
Wind Press
QNH
hPa
Press
MSL
hPa
Rain since
9am
mm
Dir  Spd
km/h
Gust
km/h
Spd
kts
Gust
kts
23/11:30pm 10.6 9.6 9.0 90 0.8 WNW 4 7 2 4 1018.8 1018.8 0.0
23/11:00pm 11.1 10.6 9.5 90 0.8 WNW 2 7 1 4 1018.7 1018.7 0.0
23/10:30pm 11.5 11.5 9.8 89 0.9 CALM 0 0 0 0 1019.0 1019.0 0.0
23/10:00pm 12.0 12.0 9.9 87 1.1 CALM 0 7 0 4 1018.8 1018.8 0.0
23/09:30pm 12.5 11.4 9.9 84 1.3 NNW 6 7 3 4 1018.6 1018.6 0.0
23/09:00pm 14.4 13.3 10.6 78 2.0 N 7 9 4 5 1018.4 1018.4 0.0
23/08:30pm 16.3 14.9 12.1 76 2.3 NE 11 15 6 8 1018.4 1018.4 0.0
23/08:00pm 16.2 14.7 12.0 76 2.3 NE 11 15 6 8 1018.0 1018.0 0.0
23/07:30pm 16.4 13.7 11.8 74 2.5 ENE 17 19 9 10 1017.7 1017.7 0.0
23/07:00pm 16.9 14.2 11.6 71 2.9 ENE 17 20 9 11 1017.3 1017.3 0.0
23/06:30pm 17.5 14.3 11.3 67 3.4 NE 19 22 10 12 1016.9 1016.9 0.0
23/06:00pm 17.9 14.5 11.2 65 3.6 NE 20 26 11 14 1016.4 1016.4 0.0
23/05:30pm 18.2 14.4 11.3 64 3.8 NE 22 26 12 14 1016.1 1016.1 0.0
23/05:00pm 18.6 14.7 10.7 60 4.3 NE 22 26 12 14 1016.0 1015.9 0.0
23/04:30pm 18.7 14.4 10.8 60 4.3 NE 24 30 13 16 1015.7 1015.6 0.0
23/04:00pm 19.0 14.7 10.6 58 4.5 NE 24 30 13 16 1015.6 1015.5 0.0
23/03:30pm 19.0 14.6 10.3 57 4.7 NE 24 30 13 16 1015.9 1015.8 0.0
23/03:00pm 19.2 14.9 10.7 58 4.6 NE 24 30 13 16 1016.0 1015.9 0.0
23/02:30pm 19.6 15.5 11.4 59 4.5 NE 24 30 13 16 1016.3 1016.3 0.0
23/02:00pm 19.0 14.8 9.8 55 4.9 NE 22 28 12 15 1016.7 1016.7 0.0
23/01:30pm 19.0 14.7 9.2 53 5.1 ENE 22 26 12 14 1016.9 1016.9 0.0
23/01:00pm 19.4 15.2 9.9 54 5.1 ENE 22 26 12 14 1017.1 1017.1 0.0
23/12:30pm 19.0 15.1 9.5 54 5.0 ENE 20 24 11 13 1017.5 1017.5 0.0
23/12:00pm 18.6 14.7 8.8 53 5.1 ENE 19 24 10 13 1017.9 1017.9 0.0
23/11:30am 18.3 14.6 9.6 57 4.6 ENE 19 22 10 12 1018.1 1018.1 0.0
23/11:00am 18.6 15.3 9.7 56 4.7 ENE 17 19 9 10 1018.5 1018.5 0.0
23/10:30am 17.9 15.0 9.8 59 4.3 E 15 17 8 9 1018.6 1018.6 0.0
23/10:00am 17.4 15.3 9.6 60 4.1 E 11 15 6 8 1018.7 1018.7 0.0
23/09:30am 17.1 15.7 9.5 61 4.0 E 7 11 4 6 1018.6 1018.6 0.0
23/09:00am 15.7 14.8 9.4 66 3.2 NNW 4 9 2 5 1018.5 1018.5 0.6
23/08:30am 13.9 12.7 9.7 76 2.2 WNW 6 9 3 5 1018.3 1018.3 0.6
23/08:00am 12.2 10.9 9.8 85 1.2 WNW 7 11 4 6 1018.1 1018.1 0.6
23/07:30am 11.1 10.8 10.0 93 0.6 WSW 2 9 1 5 1017.7 1017.7 0.6
23/07:09am 10.2 10.1 9.4 95 0.4 CALM 0 0 0 0 1017.4 1017.4 0.4
23/07:00am 9.5 9.2 8.7 95 0.4 CALM 0 2 0 1 1017.4 1017.4 0.4
23/06:58am 9.4 9.1 8.6 95 0.4 CALM 0 6 0 3 1017.4 1017.4 0.4
23/06:52am 9.1 8.0 8.3 95 0.4 W 4 7 2 4 1017.3 1017.3 0.4
23/06:32am 7.6 5.5 6.7 94 0.4 SW 7 9 4 5 1017.3 1017.3 0.4
23/06:30am 7.8 6.0 7.1 95 0.3 WSW 6 9 3 5 1017.2 1017.2 0.4
23/06:20am 8.6 8.1 7.8 95 0.4 CALM 0 0 0 0 1017.1 1017.1 0.4
23/06:00am 8.5 8.0 7.7 95 0.4 CALM 0 0 0 0 1016.9 1016.9 0.4
23/05:30am 8.8 8.3 7.9 94 0.4 CALM 0 0 0 0 1016.8 1016.8 0.4
23/05:02am 9.0 7.4 8.1 94 0.4 W 6 9 3 5 1016.6 1016.6 0.4
23/05:00am 9.1 7.5 8.2 94 0.4 W 6 9 3 5 1016.6 1016.6 0.4
23/04:35am 9.4 7.9 8.5 94 0.4 W 6 9 3 5 1016.5 1016.5 0.4
23/04:30am 9.1 7.5 8.2 94 0.4 W 6 9 3 5 1016.5 1016.5 0.4
23/04:16am 8.6 6.9 7.5 93 0.5 W 6 7 3 4 1016.5 1016.5 0.4
23/04:00am 9.7 8.1 8.8 94 0.4 W 7 9 4 5 1016.4 1016.4 0.4
23/03:50am 9.3 7.6 8.4 94 0.4 WSW 7 9 4 5 1016.4 1016.4 0.4
23/03:30am 9.0 7.4 7.8 92 0.6 W 6 7 3 4 1016.4 1016.4 0.4
23/03:25am 9.1 7.5 7.9 92 0.6 W 6 9 3 5 1016.4 1016.4 0.4
23/03:00am 9.9 8.3 8.7 92 0.6 W 7 9 4 5 1016.5 1016.5 0.4
23/02:30am 10.4 9.0 8.8 90 0.8 W 6 9 3 5 1016.6 1016.6 0.4
23/02:00am 11.6 9.6 10.2 91 0.7 WSW 11 15 6 8 1016.7 1016.7 0.4
23/01:30am 11.7 9.4 10.4 92 0.7 WSW 13 15 7 8 1016.7 1016.7 0.4
23/01:00am 11.7 10.1 10.3 91 0.7 WSW 9 15 5 8 1016.9 1016.9 0.4
23/12:30am 12.0 10.5 10.4 90 0.8 WSW 9 13 5 7 1017.0 1017.0 0.4
23/12:00am 11.9 11.0 10.5 91 0.7 WNW 6 9 3 5 1017.0 1017.0 0.4
 
Date/Time
EDT
Temp
°C
App
Temp
°C
Dew
Point
°C
Rel
Hum
%
Delta-T
°C
Wind Press
QNH
hPa
Press
MSL
hPa
Rain since
9am
mm
Dir  Spd
km/h
Gust
km/h
Spd
kts
Gust
kts
22/11:30pm 12.5 11.5 10.9 90 0.8 W 7 9 4 5 1017.0 1017.0 0.4
22/11:00pm 12.9 12.5 11.1 89 0.9 WNW 4 6 2 3 1016.9 1016.9 0.4
22/10:30pm 13.2 12.4 11.6 90 0.9 W 7 9 4 5 1016.7 1016.7 0.4
22/10:00pm 13.5 12.8 12.1 91 0.8 NW 7 9 4 5 1016.6 1016.6 0.2
22/09:30pm 13.5 12.8 11.9 90 0.9 W 7 9 4 5 1016.7 1016.7 0.2
22/09:00pm 14.2 14.0 11.7 85 1.3 NW 4 7 2 4 1016.3 1016.3 0.2
22/08:30pm 14.5 14.6 10.1 75 2.3 CALM 0 0 0 0 1016.1 1016.1 0.0
22/08:00pm 15.6 14.2 11.0 74 2.4 SSE 9 13 5 7 1015.7 1015.6 0.0
22/07:30pm 16.1 14.6 10.4 69 3.0 SE 9 15 5 8 1015.3 1015.2 0.0
22/07:00pm 16.5 13.6 9.7 64 3.5 SSE 15 20 8 11 1014.9 1014.8 0.0
22/06:30pm 17.0 15.1 8.9 59 4.2 ESE 9 13 5 7 1014.5 1014.4 0.0
22/06:00pm 18.0 15.7 9.1 56 4.6 E 11 13 6 7 1014.2 1014.1 0.0
22/05:30pm 17.5 15.4 8.4 55 4.7 E 9 13 5 7 1013.8 1013.7 0.0
22/05:00pm 17.4 14.9 8.0 54 4.8 ENE 11 13 6 7 1013.6 1013.5 0.0
22/04:30pm 18.5 15.9 7.9 50 5.4 E 11 15 6 8 1013.6 1013.5 0.0
22/04:00pm 18.2 15.4 7.0 48 5.6 E 11 17 6 9 1013.4 1013.3 0.0
22/03:30pm 18.2 15.4 7.0 48 5.6 E 11 15 6 8 1013.4 1013.3 0.0
22/03:00pm 17.1 14.7 7.2 52 4.9 ESE 9 13 5 7 1013.6 1013.5 0.0
22/02:30pm 17.6 14.5 7.1 50 5.2 E 13 19 7 10 1013.7 1013.6 0.0
22/02:00pm 18.0 14.5 7.4 50 5.3 ESE 15 20 8 11 1013.8 1013.7 0.0
22/01:30pm 17.5 14.0 7.3 51 5.1 ESE 15 20 8 11 1014.1 1014.0 0.0
22/01:00pm 18.5 14.4 7.9 50 5.4 ESE 19 24 10 13 1014.2 1014.1 0.0
22/12:30pm 17.5 13.6 7.0 50 5.2 E 17 20 9 11 1014.2 1014.1 0.0
22/12:00pm 17.7 14.0 8.0 53 4.9 ESE 17 20 9 11 1014.6 1014.5 0.0
22/11:30am 17.3 13.7 8.2 55 4.6 ESE 17 20 9 11 1014.9 1014.8 0.0
22/11:00am 16.7 13.3 7.6 55 4.6 ENE 15 19 8 10 1015.0 1014.9 0.0
22/10:30am 16.7 13.7 7.9 56 4.4 E 13 15 7 8 1015.2 1015.1 0.0
22/10:00am 15.6 12.8 7.1 57 4.2 ENE 11 15 6 8 1015.2 1015.1 0.0
22/09:30am 15.8 13.8 7.3 57 4.2 ENE 7 11 4 6 1015.3 1015.2 0.0
22/09:00am 15.1 13.2 7.6 61 3.7 ENE 7 13 4 7 1015.5 1015.4 0.0
22/08:30am 14.2 13.6 9.0 71 2.6 SSW 2 6 1 3 1015.6 1015.5 0.0
22/08:00am 13.1 12.2 9.4 78 1.9 SSW 4 7 2 4 1015.8 1015.7 0.0
22/07:30am 12.4 11.0 8.9 79 1.8 SW 6 11 3 6 1015.6 1015.5 0.0
22/07:00am 12.1 10.2 8.9 81 1.6 SW 9 11 5 6 1015.5 1015.4 0.0
22/06:30am 11.9 10.5 9.5 85 1.2 SW 7 9 4 5 1015.2 1015.1 0.0
22/06:00am 11.6 10.3 9.3 86 1.2 NNW 6 7 3 4 1014.8 1014.7 0.0
22/05:30am 11.8 11.6 9.2 84 1.3 CALM 0 0 0 0 1014.9 1014.8 0.0
22/05:00am 12.0 11.8 9.0 82 1.5 CALM 0 0 0 0 1014.8 1014.7 0.0
22/04:30am 12.0 11.5 9.4 84 1.3 W 2 6 1 3 1015.2 1015.1 0.0
22/04:00am 12.3 11.1 9.5 83 1.4 W 6 7 3 4 1015.5 1015.4 0.0
22/03:30am 12.3 10.9 9.7 84 1.3 W 7 11 4 6 1015.9 1015.8 0.0
22/03:00am 12.3 10.9 9.5 83 1.4 WNW 7 9 4 5 1016.0 1015.9 0.0
22/02:30am 12.3 10.5 9.5 83 1.4 WNW 9 11 5 6 1016.5 1016.5 0.0
22/02:00am 12.6 11.0 8.9 78 1.9 WNW 7 9 4 5 1016.8 1016.8 0.0
22/01:30am 12.7 11.3 9.0 78 1.9 W 6 7 3 4 1017.2 1017.2 0.0
22/01:00am 12.7 11.0 8.4 75 2.1 WSW 7 9 4 5 1017.7 1017.7 0.0
22/12:30am 12.7 11.5 8.0 73 2.3 WNW 4 9 2 5 1018.0 1018.0 0.0
22/12:00am 12.5 12.1 8.2 75 2.1 CALM 0 2 0 1 1018.1 1018.1 0.0
 
Date/Time
EDT
Temp
°C
App
Temp
°C
Dew
Point
°C
Rel
Hum
%
Delta-T
°C
Wind Press
QNH
hPa
Press
MSL
hPa
Rain since
9am
mm
Dir  Spd
km/h
Gust
km/h
Spd
kts
Gust
kts
21/11:30pm 12.6 12.2 8.1 74 2.2 CALM 0 6 0 3 1018.4 1018.4 0.0
21/11:00pm 12.6 11.0 7.9 73 2.3 W 6 7 3 4 1018.5 1018.5 0.0
21/10:30pm 12.3 10.7 8.2 76 2.0 W 6 7 3 4 1018.7 1018.7 0.0
21/10:00pm 11.5 10.8 8.5 82 1.5 W 2 7 1 4 1018.9 1018.9 0.0
21/09:30pm 11.1 9.6 8.3 83 1.4 W 6 7 3 4 1019.0 1019.0 0.0
21/09:00pm 10.5 9.9 7.6 82 1.4 CALM 0 0 0 0 1019.0 1019.0 0.0
21/08:30pm 10.7 10.0 7.0 78 1.8 CALM 0 0 0 0 1018.9 1018.9 0.0
21/08:00pm 11.7 10.9 6.6 71 2.4 CALM 0 0 0 0 1018.9 1018.9 0.0
21/07:30pm 14.8 12.4 7.1 60 3.8 SE 9 13 5 7 1018.7 1018.7 0.0
21/07:00pm 15.2 13.1 6.7 57 4.1 ESE 7 11 4 6 1018.6 1018.6 0.0
21/06:30pm 15.8 13.2 6.3 53 4.6 SE 9 13 5 7 1018.3 1018.3 0.0
21/06:00pm 16.1 13.0 5.7 50 5.0 ESE 11 15 6 8 1018.2 1018.2 0.0
21/05:30pm 16.4 12.7 6.2 51 5.0 ESE 15 20 8 11 1018.3 1018.3 0.0
21/05:00pm 16.6 12.8 5.6 48 5.3 ESE 15 19 8 10 1018.4 1018.4 0.0
21/04:30pm 17.1 13.7 5.7 47 5.5 E 13 17 7 9 1018.4 1018.4 0.0
21/04:00pm 16.7 13.0 6.2 50 5.1 ESE 15 19 8 10 1018.5 1018.5 0.0
21/03:30pm 16.6 12.4 5.6 48 5.3 SE 17 20 9 11 1019.1 1019.1 0.0
21/03:00pm 17.4 13.5 7.2 51 5.1 ESE 17 22 9 12 1019.5 1019.5 0.0
21/02:30pm 16.9 12.6 7.0 52 4.9 ESE 19 24 10 13 1020.1 1020.1 0.0
21/02:00pm 16.5 11.9 6.3 51 5.0 ESE 20 28 11 15 1020.5 1020.5 0.0
21/01:30pm 16.4 11.7 6.0 50 5.0 SE 20 28 11 15 1020.9 1020.9 0.0
21/01:00pm 16.8 12.2 6.6 51 5.0 SE 20 26 11 14 1021.2 1021.2 0.0
21/12:30pm 16.1 10.9 5.7 50 5.0 SE 22 28 12 15 1021.7 1021.7 0.0
21/12:00pm 16.1 10.9 5.7 50 5.0 SE 22 28 12 15 1022.2 1022.2 0.0
21/11:30am 16.2 11.0 5.5 49 5.1 SE 22 32 12 17 1022.7 1022.7 0.0
21/11:00am 16.4 11.4 6.5 52 4.8 SE 22 30 12 16 1022.9 1022.9 0.0
21/10:30am 16.1 11.3 5.4 49 5.1 SE 20 28 11 15 1023.3 1023.3 0.0
21/10:00am 15.6 11.2 4.9 49 5.0 SSW 17 24 9 13 1023.4 1023.4 0.0
21/09:30am 14.5 9.9 3.9 49 4.8 SSW 17 24 9 13 1023.5 1023.5 0.0
21/09:00am 13.7 8.5 3.8 51 4.5 SSW 20 28 11 15 1023.7 1023.7 0.4
21/08:30am 12.3 8.9 5.9 65 3.0 SW 13 15 7 8 1023.7 1023.7 0.4
21/08:00am 10.8 7.8 6.2 73 2.1 W 11 17 6 9 1023.6 1023.6 0.4
21/07:30am 9.3 6.4 6.6 83 1.3 WSW 11 17 6 9 1023.5 1023.5 0.4
21/07:00am 8.0 5.1 6.6 91 0.6 WSW 11 17 6 9 1023.5 1023.5 0.4
21/06:30am 7.3 4.3 6.1 92 0.5 WSW 11 15 6 8 1023.3 1023.3 0.4
21/06:00am 6.8 4.0 5.3 90 0.7 WSW 9 11 5 6 1023.2 1023.2 0.4

Other Formats:

Comma delimited format used in spreadsheet applications
http://www.bom.gov.au/fwo/IDN60801/IDN60801.95937.axf

JavaScript Object Notation format (JSON) in row-major order
http://www.bom.gov.au/fwo/IDN60801/IDN60801.95937.json